createdAt,value
2023-04-18T00:00:57.671Z,16.07
2023-04-18T00:06:01.130Z,16.40
2023-04-18T00:11:04.340Z,16.07
2023-04-18T00:16:09.046Z,16.60
2023-04-18T00:21:13.781Z,15.37
2023-04-18T00:26:17.184Z,15.67
2023-04-18T00:31:20.430Z,16.67
2023-04-18T00:36:23.680Z,16.40
2023-04-18T00:41:28.701Z,16.47
2023-04-18T00:46:32.023Z,16.50
2023-04-18T00:51:36.343Z,15.07
2023-04-18T00:56:39.911Z,16.20
2023-04-18T01:01:44.089Z,15.20
2023-04-18T01:06:47.379Z,15.83
2023-04-18T01:11:50.551Z,15.53
2023-04-18T01:16:54.074Z,14.27
2023-04-18T01:21:57.442Z,14.53
2023-04-18T01:27:02.286Z,14.67
2023-04-18T01:32:06.172Z,15.53
2023-04-18T01:37:09.501Z,14.57
2023-04-18T01:42:12.685Z,16.27
2023-04-18T01:47:15.855Z,14.13
2023-04-18T01:52:19.705Z,14.00
2023-04-18T01:57:22.993Z,14.90
2023-04-18T02:02:26.448Z,14.00
2023-04-18T02:07:29.992Z,14.20
2023-04-18T02:12:34.710Z,13.37
2023-04-18T02:17:38.365Z,14.73
2023-04-18T02:22:42.081Z,12.40
2023-04-18T02:27:45.701Z,14.23
2023-04-18T02:32:54.682Z,12.57
2023-04-18T02:37:58.072Z,14.50
2023-04-18T02:43:02.919Z,14.33
2023-04-18T02:48:06.300Z,14.83
2023-04-18T02:53:09.630Z,13.90
2023-04-18T02:58:13.156Z,14.13
2023-04-18T03:03:16.805Z,14.50
2023-04-18T03:08:20.541Z,13.87
2023-04-18T03:13:23.792Z,12.40
2023-04-18T03:18:27.457Z,14.70
2023-04-18T03:23:30.979Z,14.47
2023-04-18T03:28:34.542Z,13.77
2023-04-18T03:33:39.553Z,13.33
2023-04-18T03:38:42.931Z,14.00
2023-04-18T03:43:46.399Z,14.17
2023-04-18T03:48:49.876Z,14.83
2023-04-18T03:53:53.453Z,13.20
2023-04-18T03:58:56.734Z,14.13
2023-04-18T04:04:00.435Z,14.93
2023-04-18T04:09:04.039Z,15.20
2023-04-18T04:14:07.517Z,15.37
2023-04-18T04:19:11.097Z,15.13
2023-04-18T04:24:14.390Z,15.83
2023-04-18T04:29:19.350Z,15.27
2023-04-18T04:34:22.551Z,14.63
2023-04-18T04:39:25.943Z,15.27
2023-04-18T04:44:29.788Z,15.63
2023-04-18T04:49:33.084Z,15.03
2023-04-18T04:54:36.601Z,14.03
2023-04-18T04:59:39.851Z,16.47
2023-04-18T05:04:43.209Z,15.00
2023-04-18T05:09:46.497Z,15.37
2023-04-18T05:14:50.061Z,15.57
2023-04-18T05:19:53.287Z,15.20
2023-04-18T05:24:56.978Z,16.57
2023-04-18T05:30:00.203Z,17.53
2023-04-18T05:35:03.710Z,15.90
2023-04-18T05:40:07.484Z,16.67
2023-04-18T05:45:11.079Z,16.63
2023-04-18T05:50:14.597Z,16.70
2023-04-18T05:55:17.822Z,15.87
2023-04-18T06:00:21.468Z,18.23
2023-04-18T06:05:24.938Z,16.00
2023-04-18T06:10:28.273Z,17.13
2023-04-18T06:15:31.931Z,17.20
2023-04-18T06:20:36.025Z,18.53
2023-04-18T06:25:42.211Z,16.63
2023-04-18T06:30:45.843Z,16.93
2023-04-18T06:35:49.266Z,18.83
2023-04-18T06:40:52.592Z,19.03
2023-04-18T06:45:56.922Z,19.67
2023-04-18T06:51:00.019Z,18.43
2023-04-18T06:56:03.260Z,19.00
2023-04-18T07:01:06.574Z,19.47
2023-04-18T07:06:10.999Z,18.77
2023-04-18T07:11:14.213Z,15.50
2023-04-18T07:16:17.779Z,16.93
2023-04-18T07:21:21.026Z,18.73
2023-04-18T07:26:24.420Z,16.50
2023-04-18T07:31:28.984Z,15.40
2023-04-18T07:36:32.532Z,15.43
2023-04-18T07:41:36.141Z,16.50
2023-04-18T07:46:39.451Z,15.70
2023-04-18T07:51:42.701Z,16.83
2023-04-18T07:56:46.262Z,15.37
2023-04-18T08:01:49.555Z,15.97
2023-04-18T08:06:52.978Z,14.77
2023-04-18T08:11:59.854Z,16.13
2023-04-18T08:17:03.773Z,15.43
2023-04-18T08:22:11.250Z,15.77
2023-04-18T08:27:14.581Z,14.53
2023-04-18T08:32:17.759Z,15.37
2023-04-18T08:37:20.897Z,14.20
2023-04-18T08:42:24.572Z,14.93
2023-04-18T08:47:30.353Z,14.20
2023-04-18T08:52:36.548Z,16.30
2023-04-18T08:57:40.200Z,15.17
2023-04-18T09:02:45.258Z,14.33
2023-04-18T09:07:50.374Z,14.23
2023-04-18T09:12:53.967Z,13.80
2023-04-18T09:18:00.113Z,13.07
2023-04-18T09:23:05.986Z,12.87
2023-04-18T09:28:24.416Z,13.40
2023-04-18T09:33:29.467Z,13.40
2023-04-18T09:38:42.223Z,12.37
2023-04-18T09:43:47.011Z,13.30
2023-04-18T09:48:50.278Z,13.27
2023-04-18T09:53:53.830Z,12.63
2023-04-18T09:59:08.962Z,12.23
2023-04-18T10:04:13.105Z,11.37
2023-04-18T10:09:16.951Z,12.37
2023-04-18T10:14:20.760Z,12.10
2023-04-18T10:19:26.343Z,11.87
2023-04-18T10:24:50.798Z,11.03
2023-04-18T10:29:54.601Z,10.93
2023-04-18T10:35:01.119Z,11.73
2023-04-18T10:40:07.405Z,11.37
2023-04-18T10:45:21.935Z,10.03
2023-04-18T10:50:25.079Z,9.03
2023-04-18T10:55:31.291Z,8.47
2023-04-18T11:00:34.821Z,11.13
2023-04-18T11:05:38.281Z,11.87
2023-04-18T11:10:41.876Z,12.77
2023-04-18T11:15:44.987Z,12.40
2023-04-18T11:20:50.059Z,11.70
2023-04-18T11:25:56.767Z,11.30
2023-04-18T11:31:02.336Z,10.90
2023-04-18T11:36:06.041Z,10.63
2023-04-18T11:41:20.272Z,10.40
2023-04-18T11:46:23.464Z,12.37
2023-04-18T11:51:44.003Z,10.43
2023-04-18T11:56:50.574Z,11.57
2023-04-18T12:02:14.679Z,11.50
2023-04-18T12:07:35.154Z,12.07
2023-04-18T12:12:52.024Z,11.53
2023-04-18T12:18:08.639Z,11.33
2023-04-18T12:23:40.802Z,10.40
2023-04-18T12:28:46.893Z,9.83
2023-04-18T12:33:51.282Z,11.73
2023-04-18T12:38:54.959Z,12.00
2023-04-18T12:43:57.942Z,10.43
2023-04-18T12:49:01.265Z,12.40
2023-04-18T12:54:04.606Z,11.57
2023-04-18T12:59:08.534Z,11.63
2023-04-18T13:04:15.119Z,11.93
2023-04-18T13:09:18.429Z,10.70
2023-04-18T13:14:21.957Z,11.37
2023-04-18T13:19:25.563Z,10.17
2023-04-18T13:24:28.811Z,10.93
2023-04-18T13:29:32.172Z,11.17
2023-04-18T13:34:38.673Z,11.40
2023-04-18T13:39:42.314Z,10.17
2023-04-18T13:44:46.572Z,9.73
2023-04-18T13:49:53.172Z,8.85
2023-04-18T13:54:56.417Z,9.07
2023-04-18T13:59:59.659Z,10.38
2023-04-18T14:05:02.832Z,11.97
2023-04-18T14:10:06.746Z,11.23
2023-04-18T14:15:10.846Z,12.37
2023-04-18T14:20:16.337Z,10.87
2023-04-18T14:25:19.720Z,11.90
2023-04-18T14:30:23.214Z,11.43
2023-04-18T14:35:26.515Z,10.53
2023-04-18T14:40:32.608Z,10.43
2023-04-18T14:45:36.233Z,8.87
2023-04-18T14:50:39.641Z,9.37
2023-04-18T14:55:45.134Z,10.47
2023-04-18T15:00:49.427Z,10.00
2023-04-18T15:05:53.559Z,10.63
2023-04-18T15:10:57.090Z,8.63
2023-04-18T15:16:03.588Z,8.98
2023-04-18T15:21:06.845Z,8.75
2023-04-18T15:26:10.172Z,9.25
2023-04-18T15:31:14.771Z,8.43
2023-04-18T15:36:17.962Z,10.37
2023-04-18T15:41:21.722Z,9.50
2023-04-18T15:46:25.463Z,10.23
2023-04-18T15:51:29.027Z,9.60
2023-04-18T15:56:33.622Z,10.57
2023-04-18T16:01:37.135Z,10.33
2023-04-18T16:06:41.121Z,8.93
2023-04-18T16:11:44.259Z,9.87
2023-04-18T16:16:47.735Z,11.27
2023-04-18T16:21:51.327Z,9.70
2023-04-18T16:26:55.929Z,10.00
2023-04-18T16:31:59.194Z,9.67
2023-04-18T16:37:05.501Z,10.03
2023-04-18T16:42:10.740Z,9.73
2023-04-18T16:47:16.900Z,9.73
2023-04-18T16:52:21.254Z,10.10
2023-04-18T16:57:24.786Z,9.80
2023-04-18T17:02:30.672Z,9.17
2023-04-18T17:07:35.787Z,11.83
2023-04-18T17:12:41.888Z,9.67
2023-04-18T17:17:48.573Z,10.47
2023-04-18T17:22:52.575Z,10.33
2023-04-18T17:27:57.346Z,10.07
2023-04-18T17:33:01.734Z,8.47
2023-04-18T17:38:06.335Z,9.07
2023-04-18T17:43:12.110Z,9.20
2023-04-18T17:48:19.179Z,8.57
2023-04-18T17:53:26.170Z,9.13
2023-04-18T17:58:32.073Z,9.17
2023-04-18T18:03:42.403Z,8.40
2023-04-18T18:08:47.716Z,7.60
2023-04-18T18:13:54.973Z,7.73
2023-04-18T18:19:00.207Z,8.10
2023-04-18T18:24:04.786Z,7.77
2023-04-18T18:29:12.134Z,8.53
2023-04-18T18:34:18.141Z,9.57
2023-04-18T18:39:23.025Z,9.47
2023-04-18T18:44:29.968Z,9.90
2023-04-18T18:49:35.698Z,10.13
2023-04-18T18:54:41.148Z,10.13
2023-04-18T18:59:47.259Z,8.60
2023-04-18T19:04:54.597Z,8.33
2023-04-18T19:10:03.266Z,6.97
2023-04-18T19:15:08.322Z,6.97
2023-04-18T19:20:13.743Z,6.17
2023-04-18T19:25:20.115Z,5.37
2023-04-18T19:30:31.905Z,7.13
2023-04-18T19:35:39.232Z,6.10
2023-04-18T19:40:44.444Z,5.10
2023-04-18T19:45:49.109Z,5.03
2023-04-18T19:50:53.662Z,4.90
2023-04-18T19:56:02.442Z,5.37
2023-04-18T20:01:09.368Z,5.33
2023-04-18T20:06:14.950Z,5.40
2023-04-18T20:11:21.805Z,4.07
2023-04-18T20:16:29.495Z,3.73
2023-04-18T20:21:35.460Z,3.80
2023-04-18T20:26:40.032Z,3.73
2023-04-18T20:31:44.592Z,4.03
2023-04-18T20:36:48.459Z,4.53
2023-04-18T20:41:54.322Z,3.80
2023-04-18T20:47:02.241Z,4.90
2023-04-18T20:52:10.770Z,4.20
2023-04-18T20:57:14.225Z,3.80
2023-04-18T21:02:18.106Z,4.17
2023-04-18T21:07:21.991Z,3.67
2023-04-18T21:12:25.319Z,3.53
2023-04-18T21:17:29.051Z,3.97
2023-04-18T21:22:32.295Z,3.20
2023-04-18T21:27:36.401Z,3.50
2023-04-18T21:32:40.408Z,3.77
2023-04-18T21:37:43.739Z,4.03
2023-04-18T21:42:48.156Z,3.80
2023-04-18T21:47:53.072Z,4.00
2023-04-18T21:52:56.578Z,4.27
2023-04-18T21:57:59.820Z,3.07
2023-04-18T22:03:03.169Z,4.17
2023-04-18T22:08:06.651Z,3.93
2023-04-18T22:13:10.419Z,3.70
2023-04-18T22:18:14.600Z,3.13
2023-04-18T22:23:17.958Z,2.90
2023-04-18T22:28:23.209Z,3.37
2023-04-18T22:33:26.799Z,3.90
2023-04-18T22:38:30.093Z,3.00
2023-04-18T22:43:33.679Z,2.83
2023-04-18T22:48:37.098Z,2.63
2023-04-18T22:53:40.290Z,2.80
2023-04-18T22:58:43.435Z,2.80
2023-04-18T23:03:47.013Z,3.17
2023-04-18T23:08:50.755Z,2.80
2023-04-18T23:13:54.014Z,3.00
2023-04-18T23:18:57.154Z,3.43
2023-04-18T23:24:00.826Z,2.70
2023-04-18T23:29:04.114Z,3.00
2023-04-18T23:34:07.395Z,3.00
2023-04-18T23:39:10.683Z,3.07
2023-04-18T23:44:14.274Z,2.87
2023-04-18T23:49:17.671Z,3.43
2023-04-18T23:54:20.793Z,2.87
2023-04-18T23:59:24.054Z,3.20
